Time;durP1;ratioP1;P1;durP2;ratioP2;P2;SDS_P1;SDS_P2;PMS_P1;PMS_P2;Temp;Humidity;BMP_temperature;BMP_pressure;BME280_temperature;BME280_humidity;BME280_pressure;Samples;Min_cycle;Max_cycle;Signal;HPM_P1;HPM_P2
2022/04/03 00:00:20;;;;;;;4.95;4.45;;;1.10;99.90;;;;;;4974723;28;20183;-65
2022/04/03 00:02:46;;;;;;;6.03;5.20;;;1.10;99.90;;;;;;4974235;28;20257;-64
2022/04/03 00:05:12;;;;;;;5.47;4.10;;;1.10;99.90;;;;;;4974105;28;20188;-63
2022/04/03 00:07:37;;;;;;;6.37;4.83;;;1.10;99.90;;;;;;4974556;28;20207;-64
2022/04/03 00:10:04;;;;;;;9.20;5.20;;;1.10;99.90;;;;;;4974750;28;20251;-65
2022/04/03 00:12:29;;;;;;;6.85;5.18;;;1.10;99.90;;;;;;4974351;28;20187;-64
2022/04/03 00:14:55;;;;;;;6.17;5.07;;;1.10;99.90;;;;;;4974038;28;20192;-65
2022/04/03 00:17:21;;;;;;;4.80;4.10;;;1.10;99.90;;;;;;4974579;28;20509;-64
2022/04/03 00:19:47;;;;;;;8.70;5.50;;;1.00;99.90;;;;;;4974511;28;20287;-65
2022/04/03 00:22:13;;;;;;;5.93;5.20;;;1.00;99.90;;;;;;4974100;28;20557;-63
2022/04/03 00:24:39;;;;;;;6.20;5.63;;;1.00;99.90;;;;;;4973818;28;20431;-66
2022/04/03 00:27:05;;;;;;;4.20;3.83;;;1.00;99.90;;;;;;4974342;28;20658;-65
2022/04/03 00:29:30;;;;;;;3.27;3.07;;;1.00;99.90;;;;;;4975522;28;20164;-66
2022/04/03 00:31:57;;;;;;;6.10;5.20;;;0.90;99.90;;;;;;4978268;28;20905;-66
2022/04/03 00:34:23;;;;;;;10.80;6.10;;;0.90;99.90;;;;;;4977537;28;20172;-64
2022/04/03 00:36:48;;;;;;;5.13;4.83;;;0.90;99.90;;;;;;4978622;28;20173;-65
2022/04/03 00:39:14;;;;;;;5.10;3.57;;;0.90;99.90;;;;;;4977719;28;20418;-64
2022/04/03 00:41:40;;;;;;;5.90;5.37;;;0.90;99.90;;;;;;4978062;28;20179;-62
2022/04/03 00:44:06;;;;;;;5.60;3.85;;;0.80;99.90;;;;;;4977574;28;20675;-62
2022/04/03 00:46:33;;;;;;;3.85;3.55;;;0.90;99.90;;;;;;4977952;28;20206;-64
2022/04/03 00:49:00;;;;;;;4.15;3.80;;;0.90;99.90;;;;;;4977779;28;20176;-65
2022/04/03 00:51:27;;;;;;;5.80;5.15;;;0.90;99.90;;;;;;4977693;28;20187;-65
2022/04/03 00:53:53;;;;;;;6.40;5.65;;;0.90;99.90;;;;;;4977515;28;20230;-65
2022/04/03 00:56:19;;;;;;;5.40;4.90;;;0.90;99.90;;;;;;4977910;28;20282;-64
2022/04/03 00:58:44;;;;;;;8.13;3.37;;;0.90;99.90;;;;;;4977811;28;20434;-66
2022/04/03 01:01:11;;;;;;;7.67;3.80;;;0.90;99.90;;;;;;4977333;28;20468;-64
2022/04/03 01:03:37;;;;;;;3.63;3.00;;;0.90;99.90;;;;;;4977224;28;20214;-63
2022/04/03 01:06:03;;;;;;;4.37;4.07;;;0.90;99.90;;;;;;4977535;28;20278;-64
2022/04/03 01:08:28;;;;;;;6.53;5.93;;;0.90;99.90;;;;;;4977777;28;20252;-66
2022/04/03 01:10:55;;;;;;;7.37;5.00;;;0.90;99.90;;;;;;4977259;28;20276;-64
2022/04/03 01:13:21;;;;;;;5.45;4.95;;;1.00;99.90;;;;;;4978605;28;20415;-64
2022/04/03 01:15:56;;;;;;;6.57;5.28;;;1.00;99.90;;;;;;4977490;28;20259;-65
2022/04/03 01:18:24;;;;;;;8.05;6.53;;;1.00;99.90;;;;;;4977435;28;20665;-66
2022/04/03 01:20:52;;;;;;;6.70;6.10;;;1.00;99.90;;;;;;4976941;28;20611;-65
2022/04/03 01:23:19;;;;;;;7.90;7.07;;;1.00;99.90;;;;;;4976855;28;20212;-64
2022/04/03 01:25:45;;;;;;;5.70;5.10;;;1.00;99.90;;;;;;4977553;28;20192;-65
2022/04/03 01:28:11;;;;;;;4.23;3.93;;;1.00;99.90;;;;;;4977422;28;20211;-63
2022/04/03 01:30:36;;;;;;;6.90;6.00;;;1.00;99.90;;;;;;4976816;28;20534;-66
2022/04/03 01:33:02;;;;;;;9.47;5.80;;;0.90;99.90;;;;;;4977142;28;20180;-67
2022/04/03 01:35:28;;;;;;;9.30;6.73;;;1.00;99.90;;;;;;4976587;28;20703;-65
2022/04/03 01:37:53;;;;;;;5.20;4.73;;;1.00;99.90;;;;;;4977119;28;20539;-66
2022/04/03 01:40:19;;;;;;;10.10;5.10;;;1.10;99.90;;;;;;4976208;28;20602;-65
2022/04/03 01:42:45;;;;;;;9.63;5.10;;;1.10;99.90;;;;;;4976384;28;20459;-65
2022/04/03 01:45:11;;;;;;;14.60;7.70;;;1.10;99.90;;;;;;4976466;28;20180;-65
2022/04/03 01:47:37;;;;;;;5.10;4.30;;;1.10;99.90;;;;;;4976725;28;20326;-67
2022/04/03 01:50:04;;;;;;;7.50;5.88;;;1.10;99.90;;;;;;4976590;28;20424;-63
2022/04/03 01:52:30;;;;;;;6.78;5.93;;;1.20;99.90;;;;;;4976463;28;20175;-65
2022/04/03 01:54:55;;;;;;;7.20;5.30;;;1.20;99.90;;;;;;4976365;28;20203;-64
2022/04/03 01:57:21;;;;;;;6.70;6.03;;;1.20;99.90;;;;;;4976849;28;20655;-63
2022/04/03 01:59:46;;;;;;;6.37;5.77;;;1.20;99.90;;;;;;4976697;28;20520;-64
2022/04/03 02:02:12;;;;;;;6.70;6.20;;;1.20;99.90;;;;;;4975954;28;20262;-63
2022/04/03 02:04:38;;;;;;;9.40;7.30;;;1.20;99.90;;;;;;4976166;28;20555;-64
2022/04/03 02:07:04;;;;;;;8.73;6.63;;;1.20;99.90;;;;;;4976645;28;20244;-64
2022/04/03 02:09:30;;;;;;;9.53;7.50;;;1.30;99.90;;;;;;4976630;28;20172;-66
2022/04/03 02:11:57;;;;;;;11.35;7.07;;;1.30;99.90;;;;;;4976157;28;20251;-63
2022/04/03 02:14:24;;;;;;;7.90;6.78;;;1.20;99.90;;;;;;4975918;28;20168;-65
2022/04/03 02:16:53;;;;;;;7.25;5.32;;;1.30;99.90;;;;;;4976204;28;20183;-63
2022/04/03 02:19:19;;;;;;;7.65;6.90;;;1.30;99.90;;;;;;4976410;28;20274;-63
2022/04/03 02:21:44;;;;;;;6.63;5.50;;;1.30;99.90;;;;;;4974585;28;20346;-65
2022/04/03 02:24:10;;;;;;;6.43;4.70;;;1.30;99.90;;;;;;4975635;28;20211;-63
2022/04/03 02:26:35;;;;;;;6.07;5.47;;;1.30;99.90;;;;;;4976151;28;20184;-62
2022/04/03 02:29:01;;;;;;;8.47;7.67;;;1.30;99.90;;;;;;4976418;28;20247;-61
2022/04/03 02:31:27;;;;;;;5.10;4.43;;;1.30;99.90;;;;;;4975849;28;20295;-65
2022/04/03 02:33:52;;;;;;;5.70;5.20;;;1.30;99.90;;;;;;4975186;28;20187;-64
2022/04/03 02:36:18;;;;;;;6.13;5.60;;;1.30;99.90;;;;;;4975847;28;20629;-63
2022/04/03 02:38:43;;;;;;;6.33;3.57;;;1.30;99.90;;;;;;4975976;28;20206;-66
2022/04/03 02:41:09;;;;;;;5.73;5.23;;;1.30;99.90;;;;;;4975943;28;20223;-66
2022/04/03 02:43:34;;;;;;;6.77;6.07;;;1.30;99.90;;;;;;4975057;28;20632;-65
2022/04/03 02:46:00;;;;;;;5.13;4.40;;;1.30;99.90;;;;;;4975631;28;20203;-61
2022/04/03 02:48:26;;;;;;;7.20;5.33;;;1.30;99.90;;;;;;4975873;28;20169;-64
2022/04/03 02:50:52;;;;;;;8.27;5.23;;;1.30;99.90;;;;;;4975508;28;20533;-65
2022/04/03 02:53:17;;;;;;;9.30;6.57;;;1.30;99.90;;;;;;4974281;28;20431;-65
2022/04/03 02:55:43;;;;;;;4.17;3.63;;;1.30;99.90;;;;;;4975606;28;20690;-65
2022/04/03 02:58:08;;;;;;;8.60;6.03;;;1.30;99.90;;;;;;4975593;28;20168;-64
2022/04/03 03:00:35;;;;;;;9.67;6.10;;;1.30;99.90;;;;;;4975633;28;20639;-64
2022/04/03 03:03:01;;;;;;;8.55;6.05;;;1.30;99.90;;;;;;4974939;28;20694;-62
2022/04/03 03:05:26;;;;;;;6.93;6.30;;;1.30;99.90;;;;;;4974988;28;20271;-64
2022/04/03 03:07:52;;;;;;;7.13;6.47;;;1.30;99.90;;;;;;4975484;28;20494;-64
2022/04/03 03:10:20;;;;;;;8.47;6.87;;;1.30;99.90;;;;;;4975591;28;20208;-65
2022/04/03 03:12:46;;;;;;;5.20;4.63;;;1.30;99.90;;;;;;4974867;28;20175;-64
2022/04/03 03:15:13;;;;;;;6.10;5.50;;;1.30;99.90;;;;;;4975248;28;20287;-65
2022/04/03 03:17:39;;;;;;;7.85;3.95;;;1.30;99.90;;;;;;4977350;28;20658;-63
2022/04/03 03:20:05;;;;;;;8.70;6.00;;;1.30;99.90;;;;;;4975392;28;20204;-65
2022/04/03 03:22:32;;;;;;;6.85;6.25;;;1.30;99.90;;;;;;4974685;28;20635;-66
2022/04/03 03:24:57;;;;;;;7.88;7.03;;;1.30;99.90;;;;;;4974658;28;20536;-64
2022/04/03 03:27:23;;;;;;;5.90;5.27;;;1.30;99.90;;;;;;4975149;28;20176;-64
2022/04/03 03:29:49;;;;;;;8.07;5.73;;;1.30;99.90;;;;;;4974833;28;20727;-64
2022/04/03 03:32:14;;;;;;;8.90;7.20;;;1.30;99.90;;;;;;4974771;28;20180;-63
2022/04/03 03:34:40;;;;;;;7.47;6.43;;;1.30;99.90;;;;;;4974355;28;20259;-64
2022/04/03 03:37:05;;;;;;;7.03;5.37;;;1.30;99.90;;;;;;4974034;28;20168;-65
2022/04/03 03:39:31;;;;;;;6.40;5.80;;;1.30;99.90;;;;;;4974638;28;20176;-65
2022/04/03 03:41:56;;;;;;;7.57;5.67;;;1.40;99.90;;;;;;4974638;28;20292;-64
2022/04/03 03:44:22;;;;;;;11.00;8.27;;;1.40;99.90;;;;;;4974322;28;20190;-65
2022/04/03 03:46:48;;;;;;;5.03;4.53;;;1.30;99.90;;;;;;4973739;28;20188;-65
2022/04/03 03:49:14;;;;;;;7.73;4.90;;;1.30;99.90;;;;;;4974725;28;20180;-63
2022/04/03 03:51:40;;;;;;;7.40;6.30;;;1.30;99.90;;;;;;4974758;28;20435;-65
2022/04/03 03:54:06;;;;;;;4.33;3.93;;;1.30;99.90;;;;;;4974131;28;20538;-64
2022/04/03 03:56:32;;;;;;;6.95;5.53;;;1.30;99.90;;;;;;4974402;28;20591;-63
2022/04/03 03:58:58;;;;;;;6.68;5.45;;;1.30;99.90;;;;;;4974748;28;20204;-61
2022/04/03 04:01:24;;;;;;;6.17;5.77;;;1.30;99.90;;;;;;4974487;28;20179;-64
2022/04/03 04:03:49;;;;;;;12.97;7.17;;;1.30;99.90;;;;;;4973573;28;20215;-63
2022/04/03 04:06:15;;;;;;;7.97;4.97;;;1.30;99.90;;;;;;4974665;28;20195;-65
2022/04/03 04:08:42;;;;;;;5.50;5.10;;;1.30;99.90;;;;;;4974431;28;20194;-64
2022/04/03 04:11:08;;;;;;;7.82;7.20;;;1.20;99.90;;;;;;4974798;28;20815;-64
2022/04/03 04:13:33;;;;;;;6.70;6.10;;;1.30;99.90;;;;;;4973963;28;20540;-65
2022/04/03 04:15:59;;;;;;;6.50;5.90;;;1.30;99.90;;;;;;4974143;28;20200;-64
2022/04/03 04:18:25;;;;;;;9.47;5.70;;;1.20;99.90;;;;;;4974866;28;20184;-63
2022/04/03 04:20:52;;;;;;;5.90;5.43;;;1.30;99.90;;;;;;4974673;28;20419;-63
2022/04/03 04:23:19;;;;;;;8.52;6.18;;;1.30;99.90;;;;;;4973662;28;20610;-64
2022/04/03 04:25:45;;;;;;;4.82;4.30;;;1.30;99.90;;;;;;4973905;28;20318;-64
2022/04/03 04:28:11;;;;;;;7.78;7.00;;;1.30;99.90;;;;;;4975096;28;20254;-64
2022/04/03 04:30:37;;;;;;;5.53;5.13;;;1.20;99.90;;;;;;4974479;28;20200;-64
2022/04/03 04:33:03;;;;;;;9.73;5.97;;;1.20;99.90;;;;;;4974283;28;20521;-63
2022/04/03 04:35:29;;;;;;;11.90;6.30;;;1.20;99.90;;;;;;4973962;28;20279;-65
2022/04/03 04:37:54;;;;;;;8.33;7.43;;;1.20;99.90;;;;;;4974037;28;20420;-65
2022/04/03 04:40:20;;;;;;;5.80;4.33;;;1.20;99.90;;;;;;4974346;28;20179;-63
2022/04/03 04:42:47;;;;;;;9.00;6.33;;;1.20;99.90;;;;;;4974246;28;20211;-64
2022/04/03 04:45:14;;;;;;;9.40;7.13;;;1.20;99.90;;;;;;4974114;28;20203;-64
2022/04/03 04:47:41;;;;;;;7.47;6.80;;;1.20;99.90;;;;;;4974042;28;20554;-64
2022/04/03 04:50:09;;;;;;;11.20;5.85;;;1.20;99.90;;;;;;4974332;28;20176;-63
2022/04/03 04:52:36;;;;;;;5.68;5.13;;;1.10;99.90;;;;;;4974263;28;20635;-63
2022/04/03 04:55:05;;;;;;;9.80;6.15;;;1.10;99.90;;;;;;4973631;28;20619;-63
2022/04/03 04:57:32;;;;;;;10.30;5.20;;;1.10;99.90;;;;;;4974140;28;20193;-65
2022/04/03 04:59:58;;;;;;;5.90;5.40;;;1.10;99.90;;;;;;4974232;28;20183;-62
2022/04/03 05:02:24;;;;;;;8.85;7.80;;;1.10;99.90;;;;;;4974007;28;20192;-64
2022/04/03 05:04:50;;;;;;;5.50;5.10;;;1.10;99.90;;;;;;4973538;28;20190;-65
2022/04/03 05:07:16;;;;;;;4.68;4.28;;;1.10;99.90;;;;;;4973613;28;20263;-63
2022/04/03 05:09:43;;;;;;;6.80;6.10;;;1.10;99.90;;;;;;4973901;28;20211;-63
2022/04/03 05:12:09;;;;;;;13.07;6.72;;;1.10;99.90;;;;;;4974068;28;20470;-63
2022/04/03 05:14:35;;;;;;;6.53;5.93;;;1.10;99.90;;;;;;4973842;28;20244;-65
2022/04/03 05:17:01;;;;;;;7.50;5.57;;;1.10;99.90;;;;;;4977419;28;20210;-65
2022/04/03 05:19:27;;;;;;;8.55;6.20;;;1.10;99.90;;;;;;4977653;28;20259;-63
2022/04/03 05:21:53;;;;;;;6.07;5.50;;;1.10;99.90;;;;;;4977514;28;20209;-64
2022/04/03 05:24:19;;;;;;;7.00;5.10;;;1.10;99.90;;;;;;4976822;28;20230;-63
2022/04/03 05:26:44;;;;;;;9.87;6.00;;;1.10;99.90;;;;;;4976999;28;20179;-63
2022/04/03 05:29:10;;;;;;;5.93;5.50;;;1.10;99.90;;;;;;4980410;28;20203;-63
2022/04/03 05:31:36;;;;;;;5.63;4.72;;;1.10;99.90;;;;;;4977194;28;20187;-64
2022/04/03 05:34:02;;;;;;;4.40;3.83;;;1.20;99.90;;;;;;4976747;28;20173;-63
2022/04/03 05:36:28;;;;;;;5.63;5.10;;;1.20;99.90;;;;;;4976584;28;20455;-65
2022/04/03 05:38:54;;;;;;;7.10;6.40;;;1.20;99.90;;;;;;4977145;28;20948;-64
2022/04/03 05:41:19;;;;;;;5.07;4.60;;;1.20;99.90;;;;;;4977226;28;20512;-63
2022/04/03 05:43:45;;;;;;;8.30;6.53;;;1.20;99.90;;;;;;4976280;28;20203;-64
2022/04/03 05:46:10;;;;;;;6.03;5.63;;;1.20;99.90;;;;;;4976539;28;20663;-64
2022/04/03 05:48:37;;;;;;;7.00;5.07;;;1.20;99.90;;;;;;4976865;28;20247;-63
2022/04/03 05:51:02;;;;;;;6.40;5.90;;;1.20;99.90;;;;;;4976893;28;20177;-62
2022/04/03 05:53:29;;;;;;;4.53;3.83;;;1.30;99.90;;;;;;4976766;28;20180;-66
2022/04/03 05:55:55;;;;;;;4.47;4.07;;;1.30;99.90;;;;;;4975136;28;20279;-64
2022/04/03 05:58:21;;;;;;;8.73;4.90;;;1.40;99.90;;;;;;4976762;28;20255;-65
2022/04/03 06:00:46;;;;;;;8.13;6.97;;;1.40;99.90;;;;;;4976854;28;20239;-64
2022/04/03 06:03:13;;;;;;;6.20;5.60;;;1.50;99.90;;;;;;4975784;28;20459;-63
2022/04/03 06:05:40;;;;;;;12.93;6.35;;;1.60;99.90;;;;;;4976505;28;20202;-63
2022/04/03 06:08:06;;;;;;;5.90;5.35;;;1.70;99.90;;;;;;4976544;28;20191;-64
2022/04/03 06:10:34;;;;;;;4.72;4.32;;;1.70;99.90;;;;;;4975170;28;20653;-65
2022/04/03 06:13:02;;;;;;;4.63;3.33;;;1.80;99.90;;;;;;4975780;28;20263;-64
2022/04/03 06:15:33;;;;;;;6.03;5.43;;;1.80;99.90;;;;;;4973784;28;20210;-64
2022/04/03 06:18:03;;;;;;;6.18;4.63;;;1.90;99.90;;;;;;4971533;28;20176;-62
2022/04/03 06:20:28;;;;;;;7.03;5.05;;;2.00;99.90;;;;;;4975128;28;20176;-63
2022/04/03 06:22:54;;;;;;;5.80;4.97;;;2.00;99.90;;;;;;4975617;28;20204;-67
2022/04/03 06:25:20;;;;;;;5.47;4.70;;;2.20;99.90;;;;;;4974046;28;20446;-65
2022/04/03 06:27:46;;;;;;;5.90;5.20;;;2.30;99.90;;;;;;4975884;28;20251;-63
2022/04/03 06:30:13;;;;;;;6.50;5.03;;;2.40;99.90;;;;;;4975567;28;20591;-64
2022/04/03 06:32:39;;;;;;;8.43;4.68;;;2.50;99.90;;;;;;4956702;29;20200;-64
2022/04/03 06:35:05;;;;;;;10.03;6.77;;;2.60;99.90;;;;;;4956132;28;20216;-65
2022/04/03 06:37:32;;;;;;;5.90;5.40;;;2.80;99.90;;;;;;4956597;28;20524;-66
2022/04/03 06:39:58;;;;;;;8.07;6.05;;;3.00;99.90;;;;;;4965510;28;20263;-64
2022/04/03 06:42:24;;;;;;;4.97;4.38;;;3.10;99.90;;;;;;4966025;28;20203;-63
2022/04/03 06:44:49;;;;;;;6.53;5.70;;;3.20;99.90;;;;;;4967565;28;20196;-63
2022/04/03 06:47:15;;;;;;;11.10;4.73;;;3.40;99.90;;;;;;4967355;28;20275;-66
2022/04/03 06:49:41;;;;;;;6.37;4.83;;;3.70;99.90;;;;;;4970399;28;20247;-65
2022/04/03 06:52:08;;;;;;;6.60;4.93;;;4.10;99.90;;;;;;4973753;28;20208;-66
2022/04/03 06:54:34;;;;;;;4.78;4.10;;;4.20;99.90;;;;;;4966574;28;20579;-65
2022/04/03 06:57:00;;;;;;;3.90;3.50;;;4.40;99.90;;;;;;4974831;28;20606;-65
2022/04/03 06:59:26;;;;;;;4.03;3.67;;;4.70;99.90;;;;;;4975291;28;20215;-62
2022/04/03 07:01:51;;;;;;;3.80;3.30;;;4.80;99.90;;;;;;4974424;28;20272;-66
2022/04/03 07:04:17;;;;;;;8.03;3.03;;;4.70;99.90;;;;;;4974891;28;20443;-64
2022/04/03 07:06:42;;;;;;;4.60;3.53;;;4.70;99.90;;;;;;4973823;28;20181;-64
2022/04/03 07:09:08;;;;;;;2.97;2.33;;;4.50;99.90;;;;;;4977993;28;20674;-64
2022/04/03 07:11:34;;;;;;;3.87;3.53;;;4.30;99.90;;;;;;4978172;28;20200;-64
2022/04/03 07:13:59;;;;;;;4.70;4.20;;;4.30;99.90;;;;;;4974885;28;20172;-63
2022/04/03 07:16:25;;;;;;;5.47;3.40;;;4.30;99.90;;;;;;4975158;28;20192;-62
2022/04/03 07:18:50;;;;;;;2.70;2.50;;;4.30;99.90;;;;;;4972679;28;20535;-63
2022/04/03 07:21:16;;;;;;;6.60;4.17;;;4.10;99.90;;;;;;4972143;28;20191;-64
2022/04/03 07:23:42;;;;;;;3.40;3.20;;;4.00;99.90;;;;;;4974035;28;20200;-63
2022/04/03 07:26:08;;;;;;;3.87;3.40;;;4.10;99.90;;;;;;4971286;28;20672;-66
2022/04/03 07:28:33;;;;;;;3.47;3.17;;;4.30;99.90;;;;;;4973138;28;20958;-65
2022/04/03 07:30:59;;;;;;;2.87;2.63;;;4.40;99.90;;;;;;4973341;28;20255;-66
2022/04/03 07:33:25;;;;;;;3.27;3.07;;;4.30;99.90;;;;;;4974400;28;20228;-66
2022/04/03 07:35:53;;;;;;;4.67;3.20;;;4.30;99.90;;;;;;4973300;28;20679;-65
2022/04/03 07:38:19;;;;;;;2.45;2.30;;;4.30;99.90;;;;;;4974347;28;20173;-63
2022/04/03 07:40:48;;;;;;;4.50;3.60;;;4.30;99.90;;;;;;4974383;28;20229;-65
2022/04/03 07:43:18;;;;;;;3.20;2.75;;;4.20;99.90;;;;;;4974153;28;20458;-64
2022/04/03 07:45:45;;;;;;;2.63;2.42;;;4.20;99.90;;;;;;4974461;28;20263;-64
2022/04/03 07:48:11;;;;;;;2.90;2.70;;;4.20;99.90;;;;;;4974598;28;20176;-66
2022/04/03 07:50:37;;;;;;;5.03;3.40;;;4.20;99.90;;;;;;4973012;28;20254;-65
2022/04/03 07:53:04;;;;;;;3.40;2.85;;;4.20;99.90;;;;;;4974382;28;20180;-64
2022/04/03 07:55:30;;;;;;;4.15;3.60;;;4.30;99.90;;;;;;4974114;28;20216;-65
2022/04/03 07:57:56;;;;;;;2.60;2.40;;;4.30;99.90;;;;;;4974364;28;20174;-64
2022/04/03 08:00:21;;;;;;;3.97;2.93;;;4.30;99.90;;;;;;4974007;28;20797;-63
2022/04/03 08:02:47;;;;;;;3.90;3.60;;;4.30;99.90;;;;;;4974237;28;20208;-64
2022/04/03 08:05:13;;;;;;;3.07;2.77;;;4.20;99.90;;;;;;4974056;28;20192;-64
2022/04/03 08:07:44;;;;;;;3.15;2.80;;;4.10;99.90;;;;;;4974569;28;20210;-64
2022/04/03 08:10:12;;;;;;;3.20;3.00;;;4.20;99.90;;;;;;4972836;28;20710;-64
2022/04/03 08:12:39;;;;;;;2.60;2.40;;;4.30;99.90;;;;;;4981191;28;20657;-64
2022/04/03 08:15:07;;;;;;;3.03;2.72;;;4.30;99.90;;;;;;4993103;28;20191;-62
2022/04/03 08:17:33;;;;;;;2.97;2.63;;;4.50;99.90;;;;;;4993721;28;20259;-62
2022/04/03 08:19:59;;;;;;;2.53;2.20;;;4.50;99.90;;;;;;4980096;28;20196;-66
2022/04/03 08:22:24;;;;;;;2.90;2.30;;;4.60;99.90;;;;;;4972898;28;20181;-66
2022/04/03 08:24:50;;;;;;;2.63;2.40;;;4.70;99.90;;;;;;4973906;28;20192;-62
2022/04/03 08:27:17;;;;;;;2.30;2.20;;;4.90;99.90;;;;;;4982387;28;20178;-62
2022/04/03 08:29:43;;;;;;;2.50;2.30;;;5.20;99.90;;;;;;4976749;28;20634;-65
2022/04/03 08:32:09;;;;;;;3.75;2.75;;;6.10;99.90;;;;;;4981476;28;20258;-67
2022/04/03 08:34:35;;;;;;;2.17;2.03;;;7.50;99.90;;;;;;4975522;28;20212;-67
2022/04/03 08:37:01;;;;;;;3.10;2.90;;;8.80;99.90;;;;;;4984909;28;20222;-67
2022/04/03 08:39:26;;;;;;;4.67;3.50;;;10.30;99.90;;;;;;4974007;28;20215;-66
2022/04/03 08:41:53;;;;;;;2.90;2.33;;;11.00;96.50;;;;;;4973544;28;20394;-64
2022/04/03 08:44:19;;;;;;;2.50;2.00;;;11.90;95.20;;;;;;4977885;28;20200;-66
2022/04/03 08:46:48;;;;;;;2.73;2.43;;;12.90;96.30;;;;;;4978727;28;20452;-67
2022/04/03 08:49:16;;;;;;;6.70;2.83;;;13.30;90.60;;;;;;4973607;28;20789;-66
2022/04/03 08:51:43;;;;;;;2.83;2.63;;;13.50;92.00;;;;;;4982917;28;20413;-66
2022/04/03 08:54:10;;;;;;;2.63;2.53;;;13.70;90.70;;;;;;4980791;28;20406;-65
2022/04/03 08:56:36;;;;;;;3.37;2.40;;;13.20;90.30;;;;;;4978099;28;20447;-67
2022/04/03 08:59:02;;;;;;;3.23;2.97;;;12.90;90.10;;;;;;4987275;28;20427;-64
2022/04/03 09:01:29;;;;;;;1.93;1.83;;;13.30;88.50;;;;;;4987453;28;20398;-63
2022/04/03 09:03:55;;;;;;;2.77;2.63;;;12.40;82.70;;;;;;4985820;28;20473;-62
2022/04/03 09:06:24;;;;;;;2.23;2.03;;;11.60;85.70;;;;;;4981192;28;20445;-62
2022/04/03 09:08:50;;;;;;;2.50;2.30;;;10.80;86.90;;;;;;4978385;28;20420;-62
2022/04/03 09:11:16;;;;;;;3.42;2.45;;;10.00;89.30;;;;;;4990986;28;20407;-66
2022/04/03 09:13:43;;;;;;;1.93;1.83;;;9.30;91.00;;;;;;4988647;28;20492;-66
2022/04/03 09:16:10;;;;;;;2.73;2.53;;;8.80;91.90;;;;;;4979476;28;20422;-64
2022/04/03 09:18:42;;;;;;;3.40;3.10;;;8.70;92.50;;;;;;4996274;28;20415;-65
2022/04/03 09:21:35;;;;;;;3.97;2.33;;;8.40;93.00;;;;;;4992578;28;20412;-64
2022/04/03 09:24:19;;;;;;;3.13;2.75;;;7.90;93.50;;;;;;4984958;28;20491;-65
2022/04/03 09:26:56;;;;;;;2.65;2.20;;;7.70;94.10;;;;;;4982163;28;20437;-64
2022/04/03 09:29:21;;;;;;;3.30;3.00;;;7.40;93.70;;;;;;4977848;28;20314;-62
2022/04/03 09:31:47;;;;;;;2.50;2.30;;;7.20;95.50;;;;;;4988538;28;20219;-64
2022/04/03 09:34:19;;;;;;;2.37;2.17;;;7.00;95.20;;;;;;4976113;28;20190;-62
2022/04/03 09:37:00;;;;;;;4.15;3.17;;;6.50;96.00;;;;;;4982314;28;20246;-61
2022/04/03 09:39:28;;;;;;;2.72;2.53;;;6.00;97.60;;;;;;4980120;28;20203;-63
2022/04/03 09:42:12;;;;;;;3.17;2.30;;;5.70;99.70;;;;;;4995356;28;20182;-63
2022/04/03 09:44:40;;;;;;;3.17;2.47;;;5.40;99.90;;;;;;4982259;28;20574;-63
2022/04/03 09:47:20;;;;;;;3.55;2.45;;;5.30;99.90;;;;;;4980392;28;20201;-63
2022/04/03 09:49:55;;;;;;;2.58;2.40;;;5.40;99.90;;;;;;4995210;28;20182;-63
2022/04/03 09:52:35;;;;;;;3.65;3.35;;;5.50;99.90;;;;;;4978683;28;20180;-62
2022/04/03 09:55:23;;;;;;;3.13;2.83;;;5.50;99.90;;;;;;4994204;28;20199;-63
2022/04/03 09:58:03;;;;;;;2.95;2.65;;;5.40;99.90;;;;;;4958714;28;20194;-66
2022/04/03 10:00:30;;;;;;;2.80;2.60;;;5.30;99.90;;;;;;4962446;28;20203;-64
2022/04/03 10:03:02;;;;;;;4.13;3.72;;;5.10;99.90;;;;;;4976393;28;20211;-62
2022/04/03 10:05:36;;;;;;;4.45;3.75;;;5.00;99.90;;;;;;4990026;28;20541;-63
2022/04/03 10:08:04;;;;;;;3.10;2.90;;;5.00;99.90;;;;;;4978973;28;20205;-66
2022/04/03 10:10:31;;;;;;;3.10;2.88;;;4.90;99.90;;;;;;4976449;28;20172;-63
2022/04/03 10:12:58;;;;;;;1.80;1.70;;;4.80;99.90;;;;;;4977259;28;20304;-65
2022/04/03 10:15:25;;;;;;;2.63;2.40;;;4.80;99.90;;;;;;4975827;28;20196;-64
2022/04/03 10:17:51;;;;;;;3.33;2.10;;;4.90;99.90;;;;;;4981039;28;20238;-61
2022/04/03 10:20:17;;;;;;;3.47;3.17;;;5.00;99.90;;;;;;4976080;28;20577;-67
2022/04/03 10:22:47;;;;;;;3.40;3.10;;;4.90;99.90;;;;;;4976428;28;20668;-66
2022/04/03 10:25:18;;;;;;;2.67;2.50;;;4.90;99.90;;;;;;4991134;28;20196;-63
2022/04/03 10:27:45;;;;;;;4.28;2.65;;;4.80;99.90;;;;;;4991902;28;20182;-62
2022/04/03 10:30:14;;;;;;;2.92;2.72;;;4.80;99.90;;;;;;4988881;28;20189;-64
2022/04/03 10:32:41;;;;;;;8.70;2.65;;;4.60;99.90;;;;;;4993597;28;20745;-62
2022/04/03 10:35:09;;;;;;;3.70;2.63;;;4.70;99.90;;;;;;4985680;28;20250;-64
2022/04/03 10:37:40;;;;;;;1.98;1.88;;;4.60;99.90;;;;;;4984456;28;20236;-65
2022/04/03 10:40:16;;;;;;;3.00;2.22;;;4.50;99.90;;;;;;4975987;28;20627;-63
2022/04/03 10:42:49;;;;;;;2.47;2.28;;;4.50;99.90;;;;;;4991916;28;20670;-62
2022/04/03 10:45:15;;;;;;;1.23;1.20;;;4.60;99.40;;;;;;4994684;28;20280;-61
2022/04/03 10:47:41;;;;;;;2.37;2.17;;;4.80;98.90;;;;;;4981559;28;20268;-64
2022/04/03 10:50:09;;;;;;;2.00;1.58;;;4.80;98.50;;;;;;4985764;28;20223;-63
2022/04/03 10:52:37;;;;;;;1.48;1.40;;;5.00;98.70;;;;;;4975287;28;20176;-62
2022/04/03 10:55:21;;;;;;;1.98;1.60;;;5.20;98.60;;;;;;4975327;28;20201;-63
2022/04/03 10:57:48;;;;;;;1.75;1.67;;;5.50;98.60;;;;;;4994797;28;20190;-66
2022/04/03 11:00:14;;;;;;;2.00;1.80;;;5.70;98.70;;;;;;4992895;28;20700;-64
2022/04/03 11:02:43;;;;;;;1.90;1.47;;;6.00;99.50;;;;;;4975281;28;20207;-64
2022/04/03 11:05:32;;;;;;;1.75;1.65;;;6.40;98.40;;;;;;4974595;28;20260;-63
2022/04/03 11:08:02;;;;;;;1.60;1.50;;;7.20;99.30;;;;;;4971223;28;20275;-64
2022/04/03 11:10:48;;;;;;;1.60;1.50;;;7.60;97.70;;;;;;4975827;28;21757;-63
2022/04/03 11:13:20;;;;;;;3.10;2.78;;;7.90;95.60;;;;;;4983059;28;20186;-64
2022/04/03 11:15:55;;;;;;;1.73;1.60;;;7.70;93.20;;;;;;4976698;28;20196;-65
2022/04/03 11:18:47;;;;;;;1.77;1.65;;;7.60;92.40;;;;;;4974934;28;20565;-63
2022/04/03 11:21:17;;;;;;;2.15;2.03;;;7.20;93.20;;;;;;4975125;28;20184;-64
2022/04/03 11:23:50;;;;;;;1.40;1.30;;;7.10;94.10;;;;;;4974712;28;20606;-64
2022/04/03 11:26:17;;;;;;;1.67;1.58;;;6.90;94.10;;;;;;4979762;28;20195;-63
2022/04/03 11:28:44;;;;;;;1.77;1.67;;;6.90;94.10;;;;;;4994184;28;20229;-62
2022/04/03 11:31:10;;;;;;;1.58;1.58;;;7.10;93.80;;;;;;4975816;28;20247;-64
2022/04/03 11:33:37;;;;;;;1.33;1.23;;;7.10;93.10;;;;;;4974496;28;20187;-65
2022/04/03 11:36:07;;;;;;;1.55;1.48;;;7.40;92.20;;;;;;4974860;28;20265;-65
2022/04/03 11:38:44;;;;;;;1.38;1.27;;;7.50;91.80;;;;;;4979288;28;20175;-65
2022/04/03 11:41:12;;;;;;;2.40;2.20;;;7.40;91.80;;;;;;4988651;28;20183;-63
2022/04/03 11:43:39;;;;;;;2.20;2.10;;;7.30;92.60;;;;;;4993697;28;20531;-63
2022/04/03 11:46:07;;;;;;;2.70;2.05;;;7.10;90.60;;;;;;4993131;28;20700;-63
2022/04/03 11:48:42;;;;;;;1.90;1.52;;;6.90;92.00;;;;;;4976821;28;20178;-63
2022/04/03 11:51:19;;;;;;;8.93;2.53;;;6.60;91.40;;;;;;4974531;28;20580;-64
2022/04/03 11:53:49;;;;;;;2.15;1.98;;;6.40;91.60;;;;;;4973266;28;20176;-64
2022/04/03 11:56:16;;;;;;;2.50;1.80;;;6.30;91.80;;;;;;4974387;28;20281;-64
2022/04/03 11:58:50;;;;;;;2.35;1.77;;;6.30;91.80;;;;;;4974607;28;20175;-63
2022/04/03 12:01:49;;;;;;;1.60;1.50;;;6.50;91.80;;;;;;4973530;28;20198;-63
2022/04/03 12:04:14;;;;;;;2.58;1.77;;;6.70;91.60;;;;;;4954440;28;20212;-64
2022/04/03 12:06:42;;;;;;;2.73;2.10;;;6.70;90.10;;;;;;4953197;28;20199;-63
2022/04/03 12:09:11;;;;;;;1.00;1.00;;;6.60;90.60;;;;;;4954620;28;20204;-63
2022/04/03 12:11:39;;;;;;;1.30;1.30;;;6.60;91.00;;;;;;4954891;29;20181;-63
2022/04/03 12:14:08;;;;;;;2.10;1.80;;;6.60;91.90;;;;;;4954505;29;20209;-61
2022/04/03 12:16:40;;;;;;;5.07;1.88;;;6.40;93.80;;;;;;4964730;28;20567;-62
2022/04/03 12:19:15;;;;;;;1.83;1.73;;;6.30;92.70;;;;;;4974484;28;20180;-63
2022/04/03 12:21:49;;;;;;;1.08;1.08;;;5.90;92.50;;;;;;4974512;28;20164;-64
2022/04/03 12:24:23;;;;;;;2.30;2.13;;;5.80;93.20;;;;;;4974966;28;20222;-62
2022/04/03 12:26:58;;;;;;;1.80;1.65;;;5.60;93.60;;;;;;4976852;28;20175;-63
2022/04/03 12:29:29;;;;;;;1.65;1.55;;;5.60;93.00;;;;;;4976792;28;20169;-65
2022/04/03 12:32:01;;;;;;;3.17;2.42;;;5.60;92.80;;;;;;4976286;28;20281;-63
2022/04/03 12:34:29;;;;;;;1.23;1.20;;;5.40;93.80;;;;;;4973565;28;20194;-63
2022/04/03 12:36:57;;;;;;;3.20;2.72;;;5.40;92.90;;;;;;4976591;28;20174;-61
2022/04/03 12:39:33;;;;;;;2.25;2.05;;;5.50;93.40;;;;;;4976281;28;20179;-63
2022/04/03 12:42:09;;;;;;;1.33;1.33;;;5.60;93.10;;;;;;4976754;28;20183;-62
2022/04/03 12:44:55;;;;;;;2.15;1.35;;;5.70;93.80;;;;;;4974696;28;20193;-64
2022/04/03 12:47:22;;;;;;;2.15;1.42;;;5.90;93.90;;;;;;4975541;28;20171;-62
2022/04/03 12:50:06;;;;;;;1.35;1.25;;;6.00;93.40;;;;;;4958013;29;20172;-63
2022/04/03 12:52:43;;;;;;;1.60;1.45;;;6.20;93.60;;;;;;4967423;28;20206;-64
2022/04/03 12:55:24;;;;;;;1.83;1.73;;;6.30;93.90;;;;;;4977259;28;20191;-62
2022/04/03 13:00:56;;;;;;;1.95;1.85;;;6.60;93.70;;;;;;4977766;28;20704;-64